Flight Track Log - Related Links

Times and Time Zones

All times are in EDT time to prevent confusion due to time zone crossing. See the LYM752 flight status page for this flight to view local times or setup timezone preferences in your user account.

Time Position Orientation Groundspeed Altitude Reporting Facility
EDT Latitude Longitude Course Direction KTS MPH feet Rate Location/Type
Fri 07:33:04 AM 39.8500 -104.7000 247° West 134 154 7,100  Level Denver TRACON
Fri 07:34:04 AM 39.8333 -104.7500 247° West 134 154 7,800 767 Climbing Denver TRACON
Fri 07:35:17 AM 39.8186 -104.7939 246° West 121 139 8,800 767 Climbing Denver Center
Fri 07:36:17 AM 39.8128 -104.8325 259° West 110 127 9,500 700 Climbing Denver Center
Fri 07:37:17 AM 39.8094 -104.8697 263° West 106 122 10,200 700 Climbing Denver Center
Fri 07:38:17 AM 39.8042 -104.9081 260° West 107 123 10,900 600 Climbing Denver Center
Fri 07:39:17 AM 39.7989 -104.9469 260° West 109 125 11,400 545 Climbing Denver Center
Fri 07:40:18 AM 39.7944 -104.9861 262° West 111 128 12,000 645 Climbing Denver Center
Fri 07:41:18 AM 39.7883 -105.0292 260° West 120 138 12,700 550 Climbing Denver Center
Fri 07:42:18 AM 39.7811 -105.0708 257° West 119 137 13,100 400 Climbing Denver Center
Fri 07:43:18 AM 39.7758 -105.1153 261° West 124 143 13,500 500 Climbing Denver Center
Fri 07:44:18 AM 39.7733 -105.1614 266° West 127 146 14,100 600 Climbing Denver Center
Fri 07:45:18 AM 39.7656 -105.2050 257° West 122 140 14,700 595 Climbing Denver Center
Fri 07:46:19 AM 39.7578 -105.2481 257° West 122 140 15,300 496 Climbing Denver Center
Fri 07:47:19 AM 39.7511 -105.2917 259° West 123 142 15,700 450 Climbing Denver Center
Fri 07:48:19 AM 39.7456 -105.3311 260° West 112 129 16,200 500 Climbing Denver Center
Fri 07:49:19 AM 39.7383 -105.3689 256° West 108 124 16,700 450 Climbing Denver Center
Fri 07:50:19 AM 39.7336 -105.4083 261° West 109 125 17,100 198 Climbing Denver Center
Fri 07:51:20 AM 39.7303 -105.4547 265° West 129 148 17,100  Level Denver Center
Fri 07:52:20 AM 39.7167 -105.5025 250° West 139 160 17,100  Level Denver Center
Fri 07:53:20 AM 39.7106 -105.5567 262° West 156 180 17,100  Level Denver Center
Fri 07:54:20 AM 39.7075 -105.6150 266° West 163 188 17,100 -50 Level Denver Center
Fri 07:55:21 AM 39.6989 -105.6711 259° West 160 184 17,000  Descending Denver Center
Fri 07:56:21 AM 39.6856 -105.7275 253° West 164 189 17,100 100 Climbing Denver Center
Fri 07:57:21 AM 39.6769 -105.7839 259° West 162 186 17,200 50 Climbing Denver Center
Fri 07:58:21 AM 39.6633 -105.8425 253° West 161 185 17,200  Level Denver Center
Fri 07:59:22 AM 39.6497 -105.8989 253° West 163 188 17,200  Level Denver Center
Fri 08:00:22 AM 39.6361 -105.9561 253° West 165 190 17,200  Level Denver Center
Fri 08:01:22 AM 39.6306 -106.0153 263° West 164 189 17,200 -50 Level Denver Center
Fri 08:02:23 AM 39.6200 -106.0753 257° West 168 193 17,100 -50 Descending Denver Center
Fri 08:03:23 AM 39.6067 -106.1225 250° West 166 191 17,100 50 Level Denver Center
Fri 08:04:23 AM 39.5928 -106.1811 253° West 169 194 17,200 50 Climbing Denver Center
Fri 08:05:24 AM 39.5772 -106.2381 251° West 168 193 17,200 50 Level Denver Center
Fri 08:06:24 AM 39.5650 -106.2981 255° West 171 197 17,300 50 Climbing Denver Center
Fri 08:07:24 AM 39.5531 -106.3589 256° West 174 200 17,300 -50 Level Denver Center
Fri 08:08:25 AM 39.5408 -106.4189 255° West 172 198 17,200  Descending Denver Center
Fri 08:09:25 AM 39.5264 -106.4806 253° West 177 204 17,300 50 Climbing Denver Center
Fri 08:10:25 AM 39.5117 -106.5558 256° West 180 207 17,300 -99 Level Denver Center
Fri 08:11:26 AM 39.4986 -106.6144 254° West 178 205 17,100 -99 Descending Denver Center
Fri 08:12:26 AM 39.4869 -106.6739 256° West 177 204 17,100  Level Denver Center
Fri 08:13:27 AM 39.4731 -106.7411 255° West 173 199 17,100  Level Denver Center
Fri 08:14:27 AM 39.4631 -106.7994 257° West 173 199 17,100 -150 Level Denver Center
Fri 08:15:27 AM 39.4475 -106.8553 250° West 172 198 16,800 -149 Descending Denver Center
Fri 08:16:28 AM 39.4325 -106.9111 251° West 172 198 16,800  Level Denver Center
Fri 08:17:28 AM 39.4222 -106.9747 258° West 164 189 16,800  Level Denver Center
Fri 08:18:29 AM 39.4133 -107.0306 258° West 165 190 16,800  Level Denver Center
Fri 08:19:29 AM 39.4033 -107.0872 257° West 167 192 16,800  Level Denver Center
Fri 08:20:30 AM 39.3928 -107.1450 257° West 166 191 16,800  Level Denver Center
Fri 08:21:30 AM 39.3822 -107.2042 257° West 161 185 16,800  Level Denver Center
Fri 08:22:30 AM 39.3717 -107.2578 256° West 161 185 16,800  Level Denver Center
Fri 08:23:31 AM 39.3608 -107.3219 258° West 165 190 16,800  Level Denver Center
Fri 08:24:31 AM 39.3503 -107.3786 256° West 170 196 16,800  Level Denver Center
Fri 08:25:32 AM 39.3392 -107.4325 255° West 164 189 16,800  Level Denver Center
Fri 08:26:33 AM 39.3258 -107.4939 254° West 160 184 16,800 -248 Level Denver Center
Fri 08:27:33 AM 39.3139 -107.5475 254° West 161 185 16,300 -446 Descending Denver Center
Fri 08:28:34 AM 39.3028 -107.6128 258° West 188 216 15,900 -446 Descending Denver Center
Fri 08:29:34 AM 39.2914 -107.6858 259° West 189 217 15,400 -397 Descending Denver Center
Fri 08:30:35 AM 39.2808 -107.7514 258° West 191 220 15,100 -148 Descending Denver Center
Fri 08:31:36 AM 39.2675 -107.8119 254° West 186 214 15,100 -99 Level Denver Center
Fri 08:32:36 AM 39.2514 -107.8789 253° West 178 205 14,900 -595 Descending Denver Center
Fri 08:33:37 AM 39.2378 -107.9442 255° West 190 219 13,900 -893 Descending Denver Center
Fri 08:34:37 AM 39.2208 -108.0175 253° West 207 238 13,100 -694 Descending Denver Center
Fri 08:35:38 AM 39.2092 -108.0825 257° West 187 215 12,500 -492 Descending Denver Center
Fri 08:36:39 AM 39.1961 -108.1556 257° West 192 221 12,100 -595 Descending Denver Center
Fri 08:37:39 AM 39.1856 -108.2203 258° West 187 215 11,300 -446 Descending Denver Center
Fri 08:38:40 AM 39.1803 -108.2883 264° West 190 219 11,200 -98 Descending Denver Center
Fri 08:39:41 AM 39.1769 -108.3503 266° West 175 201 11,100 -50 Descending Denver Center
Fri 08:40:41 AM 39.1872 -108.4050 284° West 168 193 11,100 -99 Level Denver Center
Fri 08:41:42 AM 39.2106 -108.4547 301° West 159 183 10,900 -443 Descending Denver Center
Fri 08:42:43 AM 39.2347 -108.5197 296° West 188 216 10,200 -397 Descending Denver Center
Fri 08:43:43 AM 39.2581 -108.5778 297° West 184 212 10,100 -298 Descending Denver Center
Fri 08:44:44 AM 39.2811 -108.6300 300° West 170 196 9,600 -639 Descending Denver Center
Fri 08:45:45 AM 39.2783 -108.6917 267° West 198 228 8,800 -492 Descending Denver Center
Fri 08:46:46 AM 39.2306 -108.7067 194° South 201 231 8,600 -744 Descending Denver Center
Fri 08:47:46 AM 39.1961 -108.6586 133° Southeast 172 198 7,300 -1,091 Descending Denver Center
Fri 08:48:47 AM 39.1728 -108.6147 124° Southeast 152 175 6,400 -787 Descending Denver Center
Fri 08:49:48 AM 39.1517 -108.5761 125° Southeast 138 159 5,700 -793 Descending Denver Center
Fri 08:50:48 AM 39.1308 -108.5381 125° Southeast 131 151 4,800 -446 Descending Denver Center
Fri 08:51:49 AM 39.1247 -108.5247 121° Southeast 86 99 4,800  Level Denver Center
Fri 08:53:00 AM 39.1224 -108.5267 90° East  Level Estimated
Fri 09:00:00 AM 39.1224 -108.5267 90° East  Level Estimated
Fri 09:01:00 AM 39.1224 -108.5267 90° East  Level Estimated

Login

Don't have an account? Register now (free) for customized features, flight alerts, and more!